createdAt,value
2022-09-30T00:01:36.432Z,5.63
2022-09-30T00:04:04.928Z,5.62
2022-09-30T00:06:35.048Z,5.61
2022-09-30T00:09:04.407Z,5.56
2022-09-30T00:11:36.079Z,5.54
2022-09-30T00:14:04.017Z,5.50
2022-09-30T00:16:34.403Z,5.47
2022-09-30T00:19:04.181Z,5.45
2022-09-30T00:21:33.848Z,5.44
2022-09-30T00:24:02.267Z,5.44
2022-09-30T00:26:29.900Z,5.42
2022-09-30T00:29:00.701Z,5.40
2022-09-30T00:31:31.066Z,5.39
2022-09-30T00:34:08.240Z,5.37
2022-09-30T00:36:38.115Z,5.37
2022-09-30T00:39:08.086Z,5.36
2022-09-30T00:41:36.219Z,5.36
2022-09-30T00:44:37.554Z,5.35
2022-09-30T00:47:12.819Z,5.33
2022-09-30T00:49:40.406Z,5.32
2022-09-30T00:52:08.136Z,5.31
2022-09-30T00:54:35.902Z,5.32
2022-09-30T00:57:05.106Z,5.33
2022-09-30T00:59:38.137Z,5.34
2022-09-30T01:02:07.399Z,5.34
2022-09-30T01:04:36.040Z,5.34
2022-09-30T01:07:06.516Z,5.31
2022-09-30T01:09:35.420Z,5.30
2022-09-30T01:12:05.911Z,5.30
2022-09-30T01:14:33.773Z,5.30
2022-09-30T01:17:06.985Z,5.32
2022-09-30T01:19:58.275Z,5.33
2022-09-30T01:22:42.324Z,5.32
2022-09-30T01:25:46.377Z,5.31
2022-09-30T01:28:38.743Z,5.28
2022-09-30T01:31:14.839Z,5.24
2022-09-30T01:33:55.219Z,5.21
2022-09-30T01:36:39.059Z,5.21
2022-09-30T01:39:22.353Z,5.21
2022-09-30T01:41:56.842Z,5.20
2022-09-30T01:44:35.006Z,5.21
2022-09-30T01:47:11.932Z,5.19
2022-09-30T01:49:44.912Z,5.18
2022-09-30T01:52:17.487Z,5.17
2022-09-30T01:54:54.220Z,5.17
2022-09-30T01:57:29.777Z,5.16
2022-09-30T02:00:03.164Z,5.15
2022-09-30T02:02:48.511Z,5.12
2022-09-30T02:05:21.202Z,5.08
2022-09-30T02:07:54.491Z,5.05
2022-09-30T02:10:26.462Z,5.03
2022-09-30T02:13:04.791Z,5.00
2022-09-30T02:15:40.355Z,4.98
2022-09-30T02:18:19.800Z,4.97
2022-09-30T02:20:52.942Z,4.96
2022-09-30T02:23:25.769Z,4.93
2022-09-30T02:26:00.119Z,4.91
2022-09-30T02:28:30.309Z,4.89
2022-09-30T02:31:02.458Z,4.87
2022-09-30T02:33:35.907Z,4.86
2022-09-30T02:36:09.050Z,4.83
2022-09-30T02:38:42.053Z,4.80
2022-09-30T02:41:13.811Z,4.78
2022-09-30T02:43:42.225Z,4.75
2022-09-30T02:46:24.104Z,4.73
2022-09-30T02:49:00.466Z,4.70
2022-09-30T02:51:36.760Z,4.68
2022-09-30T02:54:14.992Z,4.66
2022-09-30T02:56:54.008Z,4.64
2022-09-30T02:59:22.596Z,4.61
2022-09-30T03:01:50.682Z,4.60
2022-09-30T03:04:24.053Z,4.58
2022-09-30T03:06:52.009Z,4.55
2022-09-30T03:09:19.731Z,4.55
2022-09-30T03:11:48.687Z,4.54
2022-09-30T03:14:36.886Z,4.54
2022-09-30T03:17:33.373Z,4.50
2022-09-30T03:20:17.744Z,4.47
2022-09-30T03:23:06.683Z,4.45
2022-09-30T03:25:47.156Z,4.42
2022-09-30T03:28:23.336Z,4.43
2022-09-30T03:31:00.250Z,4.40
2022-09-30T03:33:38.190Z,4.37
2022-09-30T03:36:16.307Z,4.33
2022-09-30T03:38:51.986Z,4.30
2022-09-30T03:41:27.294Z,4.26
2022-09-30T03:44:02.188Z,4.24
2022-09-30T03:46:35.407Z,4.22
2022-09-30T03:49:06.806Z,4.22
2022-09-30T03:51:37.445Z,4.22
2022-09-30T03:54:08.860Z,4.21
2022-09-30T03:56:39.193Z,4.19
2022-09-30T03:59:06.833Z,4.18
2022-09-30T04:01:34.444Z,4.16
2022-09-30T04:04:02.483Z,4.15
2022-09-30T04:06:29.995Z,4.12
2022-09-30T04:08:58.948Z,4.08
2022-09-30T04:11:26.661Z,4.07
2022-09-30T04:13:54.228Z,4.06
2022-09-30T04:16:22.046Z,4.06
2022-09-30T04:18:49.640Z,4.05
2022-09-30T04:21:17.538Z,4.05
2022-09-30T04:23:45.050Z,4.04
2022-09-30T04:26:15.930Z,4.04
2022-09-30T04:28:43.814Z,4.03
2022-09-30T04:31:13.043Z,4.01
2022-09-30T04:33:41.455Z,4.00
2022-09-30T04:36:09.530Z,3.98
2022-09-30T04:38:37.222Z,3.95
2022-09-30T04:41:06.310Z,3.93
2022-09-30T04:43:35.579Z,3.90
2022-09-30T04:46:03.253Z,3.87
2022-09-30T04:48:32.285Z,3.86
2022-09-30T04:51:00.854Z,3.84
2022-09-30T04:53:29.241Z,3.83
2022-09-30T04:56:00.911Z,3.82
2022-09-30T04:58:32.254Z,3.80
2022-09-30T05:01:04.855Z,3.80
2022-09-30T05:03:32.640Z,3.79
2022-09-30T05:06:00.206Z,3.80
2022-09-30T05:08:27.859Z,3.80
2022-09-30T05:10:57.389Z,3.81
2022-09-30T05:13:26.544Z,3.82
2022-09-30T05:15:54.117Z,3.80
2022-09-30T05:18:26.302Z,3.78
2022-09-30T05:20:54.887Z,3.78
2022-09-30T05:23:22.804Z,3.76
2022-09-30T05:25:51.939Z,3.75
2022-09-30T05:28:19.748Z,3.72
2022-09-30T05:30:47.953Z,3.70
2022-09-30T05:33:15.579Z,3.69
2022-09-30T05:35:44.939Z,3.69
2022-09-30T05:38:12.762Z,3.70
2022-09-30T05:40:40.981Z,3.69
2022-09-30T05:43:08.577Z,3.69
2022-09-30T05:45:36.216Z,3.68
2022-09-30T05:48:03.923Z,3.67
2022-09-30T05:50:31.780Z,3.67
2022-09-30T05:53:01.737Z,3.67
2022-09-30T05:55:29.487Z,3.66
2022-09-30T05:57:57.280Z,3.65
2022-09-30T06:00:24.956Z,3.66
2022-09-30T06:02:53.251Z,3.67
2022-09-30T06:05:22.037Z,3.67
2022-09-30T06:07:50.400Z,3.68
2022-09-30T06:10:19.369Z,3.69
2022-09-30T06:12:46.945Z,3.70
2022-09-30T06:15:14.538Z,3.72
2022-09-30T06:17:42.542Z,3.74
2022-09-30T06:20:11.352Z,3.77
2022-09-30T06:22:39.487Z,3.81
2022-09-30T06:25:07.843Z,3.86
2022-09-30T06:27:38.114Z,3.90
2022-09-30T06:30:07.099Z,3.94
2022-09-30T06:32:34.848Z,3.97
2022-09-30T06:35:03.740Z,3.99
2022-09-30T06:37:31.303Z,4.00
2022-09-30T06:39:58.862Z,4.02
2022-09-30T06:42:26.384Z,4.05
2022-09-30T06:44:55.662Z,4.07
2022-09-30T06:47:25.774Z,4.11
2022-09-30T06:49:58.368Z,4.15
2022-09-30T06:52:27.237Z,4.19
2022-09-30T06:54:56.390Z,4.24
2022-09-30T06:57:25.136Z,4.27
2022-09-30T06:59:52.960Z,4.32
2022-09-30T07:02:22.241Z,4.38
2022-09-30T07:04:50.181Z,4.43
2022-09-30T07:07:22.128Z,4.50
2022-09-30T07:09:50.003Z,4.58
2022-09-30T07:12:17.627Z,4.68
2022-09-30T07:14:45.308Z,4.80
2022-09-30T07:17:12.827Z,4.98
2022-09-30T07:19:41.741Z,5.15
2022-09-30T07:22:26.820Z,5.34
2022-09-30T07:24:54.750Z,5.55
2022-09-30T07:27:22.613Z,5.72
2022-09-30T07:30:08.252Z,5.93
2022-09-30T07:32:37.775Z,6.12
2022-09-30T07:35:07.305Z,6.27
2022-09-30T07:37:35.867Z,6.39
2022-09-30T07:40:06.542Z,6.52
2022-09-30T07:42:37.477Z,6.65
2022-09-30T07:45:06.169Z,6.79
2022-09-30T07:47:33.672Z,6.91
2022-09-30T07:50:01.267Z,7.05
2022-09-30T07:52:30.346Z,7.17
2022-09-30T07:54:57.873Z,7.33
2022-09-30T07:57:25.407Z,7.48
2022-09-30T07:59:53.057Z,7.68
2022-09-30T08:02:20.961Z,7.89
2022-09-30T08:04:48.753Z,8.11
2022-09-30T08:07:17.958Z,8.34
2022-09-30T08:09:47.121Z,8.57
2022-09-30T08:12:14.899Z,8.80
2022-09-30T08:14:44.476Z,9.03
2022-09-30T08:17:12.190Z,9.27
2022-09-30T08:19:43.888Z,9.43
2022-09-30T08:22:13.716Z,9.58
2022-09-30T08:24:41.262Z,9.79
2022-09-30T08:27:10.214Z,9.99
2022-09-30T08:32:25.542Z,10.39
2022-09-30T08:34:53.253Z,10.52
2022-09-30T08:37:20.793Z,10.65
2022-09-30T08:39:48.389Z,10.86
2022-09-30T08:42:38.029Z,11.07
2022-09-30T08:45:18.038Z,11.21
2022-09-30T08:47:57.570Z,11.33
2022-09-30T08:50:31.639Z,11.44
2022-09-30T08:53:02.426Z,11.58
2022-09-30T08:55:36.896Z,11.72
2022-09-30T08:58:08.175Z,11.77
2022-09-30T09:00:36.652Z,11.92
2022-09-30T09:03:04.960Z,12.04
2022-09-30T09:05:49.910Z,12.14
2022-09-30T09:08:30.460Z,12.16
2022-09-30T09:11:02.938Z,12.22
2022-09-30T09:13:46.223Z,12.29
2022-09-30T09:16:22.415Z,12.29
2022-09-30T09:19:00.156Z,12.38
2022-09-30T09:21:52.372Z,12.43
2022-09-30T09:24:22.176Z,12.45
2022-09-30T09:26:52.393Z,12.54
2022-09-30T09:29:28.894Z,12.64
2022-09-30T09:31:57.234Z,12.70
2022-09-30T09:34:26.976Z,12.80
2022-09-30T09:37:07.520Z,12.90
2022-09-30T09:40:04.558Z,13.01
2022-09-30T09:42:50.842Z,13.13
2022-09-30T09:45:29.329Z,13.19
2022-09-30T09:47:59.956Z,13.24
2022-09-30T09:50:40.632Z,13.24
2022-09-30T09:53:22.137Z,13.21
2022-09-30T09:55:54.865Z,13.23
2022-09-30T09:58:22.495Z,13.27
2022-09-30T10:01:19.987Z,13.28
2022-09-30T10:03:48.291Z,13.34
2022-09-30T10:06:16.025Z,13.40
2022-09-30T10:08:54.777Z,13.40
2022-09-30T10:11:24.720Z,13.46
2022-09-30T10:13:57.013Z,13.54
2022-09-30T10:16:31.876Z,13.66
2022-09-30T10:19:00.348Z,13.68
2022-09-30T10:21:30.045Z,13.71
2022-09-30T10:23:59.797Z,13.78
2022-09-30T10:26:28.714Z,13.85
2022-09-30T10:28:57.833Z,13.82
2022-09-30T10:31:29.538Z,13.81
2022-09-30T10:34:04.306Z,13.78
2022-09-30T10:36:34.240Z,13.76
2022-09-30T10:39:07.171Z,13.75
2022-09-30T10:41:36.797Z,13.76
2022-09-30T10:44:07.673Z,13.80
2022-09-30T10:46:40.353Z,13.88
2022-09-30T10:49:12.776Z,13.88
2022-09-30T10:51:41.569Z,13.93
2022-09-30T10:54:35.740Z,13.98
2022-09-30T10:57:04.403Z,13.97
2022-09-30T10:59:36.159Z,13.97
2022-09-30T11:02:26.358Z,13.98
2022-09-30T11:05:03.432Z,13.96
2022-09-30T11:07:34.592Z,13.97
2022-09-30T11:10:07.653Z,13.98
2022-09-30T11:12:44.523Z,14.01
2022-09-30T11:15:19.918Z,14.06
2022-09-30T11:17:55.733Z,14.11
2022-09-30T11:20:27.586Z,14.18
2022-09-30T11:23:02.568Z,14.20
2022-09-30T11:25:41.604Z,14.24
2022-09-30T11:28:48.770Z,14.30
2022-09-30T11:31:26.729Z,14.30
2022-09-30T11:34:10.268Z,14.33
2022-09-30T11:36:46.712Z,14.33
2022-09-30T11:39:31.765Z,14.32
2022-09-30T11:42:06.576Z,14.32
2022-09-30T11:44:36.296Z,14.37
2022-09-30T11:47:46.440Z,14.35
2022-09-30T11:50:39.948Z,14.42
2022-09-30T11:53:19.051Z,14.48
2022-09-30T11:56:04.319Z,14.59
2022-09-30T11:58:41.602Z,14.67
2022-09-30T12:01:22.766Z,14.68
2022-09-30T12:03:58.059Z,14.72
2022-09-30T12:06:32.936Z,14.83
2022-09-30T12:09:06.839Z,14.88
2022-09-30T12:11:40.612Z,14.93
2022-09-30T12:14:17.130Z,14.99
2022-09-30T12:16:47.881Z,15.02
2022-09-30T12:19:24.494Z,15.00
2022-09-30T12:21:59.828Z,15.01
2022-09-30T12:24:33.695Z,15.00
2022-09-30T12:27:01.894Z,15.02
2022-09-30T12:29:52.032Z,15.00
2022-09-30T12:32:37.249Z,15.01
2022-09-30T12:35:25.724Z,15.02
2022-09-30T12:38:12.947Z,15.06
2022-09-30T12:41:03.735Z,15.08
2022-09-30T12:44:06.760Z,15.09
2022-09-30T12:46:55.164Z,15.10
2022-09-30T12:49:26.003Z,15.11
2022-09-30T12:51:56.914Z,15.14
2022-09-30T12:54:29.830Z,15.17
2022-09-30T12:57:03.226Z,15.21
2022-09-30T12:59:34.842Z,15.23
2022-09-30T13:02:04.923Z,15.26
2022-09-30T13:04:35.907Z,15.31
2022-09-30T13:07:22.709Z,15.34
2022-09-30T13:10:01.229Z,15.32
2022-09-30T13:12:41.611Z,15.40
2022-09-30T13:15:24.980Z,15.36
2022-09-30T13:17:52.800Z,15.42
2022-09-30T13:20:55.050Z,15.49
2022-09-30T13:23:43.791Z,15.52
2022-09-30T13:26:38.075Z,15.54
2022-09-30T13:29:39.288Z,15.55
2022-09-30T13:32:11.535Z,15.61
2022-09-30T13:34:57.843Z,15.67
2022-09-30T13:37:40.402Z,15.78
2022-09-30T13:40:49.767Z,15.84
2022-09-30T13:43:21.218Z,15.86
2022-09-30T13:45:52.849Z,15.85
2022-09-30T13:48:26.734Z,15.86
2022-09-30T13:50:56.434Z,15.95
2022-09-30T13:53:30.428Z,16.01
2022-09-30T13:56:01.722Z,16.07
2022-09-30T13:58:52.702Z,16.11
2022-09-30T14:01:34.695Z,16.10
2022-09-30T14:04:23.132Z,16.12
2022-09-30T14:07:05.187Z,16.14
2022-09-30T14:09:39.466Z,16.16
2022-09-30T14:12:32.941Z,16.13
2022-09-30T14:15:31.701Z,16.11
2022-09-30T14:18:23.277Z,16.11
2022-09-30T14:21:06.053Z,16.09
2022-09-30T14:23:33.660Z,16.10
2022-09-30T14:26:16.217Z,16.05
2022-09-30T14:28:50.209Z,16.01
2022-09-30T14:31:20.333Z,16.02
2022-09-30T14:33:51.980Z,15.96
2022-09-30T14:36:23.203Z,15.96
2022-09-30T14:38:54.694Z,15.92
2022-09-30T14:41:24.199Z,15.90
2022-09-30T14:43:56.473Z,15.85
2022-09-30T14:46:31.812Z,15.84
2022-09-30T14:49:04.522Z,15.80
2022-09-30T14:51:38.091Z,15.75
2022-09-30T14:54:06.257Z,15.72
2022-09-30T14:56:36.443Z,15.69
2022-09-30T14:59:17.726Z,15.65
2022-09-30T15:01:48.709Z,15.61
2022-09-30T15:04:18.868Z,15.57
2022-09-30T15:06:49.456Z,15.52
2022-09-30T15:09:19.441Z,15.49
2022-09-30T15:11:48.474Z,15.46
2022-09-30T15:14:19.375Z,15.38
2022-09-30T15:16:50.648Z,15.35
2022-09-30T15:19:23.002Z,15.31
2022-09-30T15:21:53.097Z,15.28
2022-09-30T15:24:23.909Z,15.27
2022-09-30T15:26:53.514Z,15.21
2022-09-30T15:29:21.030Z,15.18
2022-09-30T15:31:55.038Z,15.18
2022-09-30T15:34:26.053Z,15.11
2022-09-30T15:36:59.683Z,15.07
2022-09-30T15:39:51.354Z,15.03
2022-09-30T15:42:36.111Z,15.00
2022-09-30T15:45:06.204Z,14.93
2022-09-30T15:47:54.936Z,14.88
2022-09-30T15:50:43.318Z,14.82
2022-09-30T15:53:20.013Z,14.79
2022-09-30T15:55:50.447Z,14.74
2022-09-30T15:58:37.816Z,14.68
2022-09-30T16:01:21.292Z,14.65
2022-09-30T16:03:54.610Z,14.58
2022-09-30T16:06:31.568Z,14.52
2022-09-30T16:09:02.168Z,14.49
2022-09-30T16:11:34.678Z,14.46
2022-09-30T16:14:05.460Z,14.40
2022-09-30T16:16:36.028Z,14.36
2022-09-30T16:19:06.460Z,14.32
2022-09-30T16:21:47.097Z,14.30
2022-09-30T16:24:48.902Z,14.21
2022-09-30T16:27:37.569Z,14.17
2022-09-30T16:30:07.423Z,14.12
2022-09-30T16:32:39.584Z,14.07
2022-09-30T16:35:17.013Z,14.04
2022-09-30T16:37:45.013Z,13.98
2022-09-30T16:40:24.328Z,13.95
2022-09-30T16:42:54.684Z,13.90
2022-09-30T16:45:23.042Z,13.86
2022-09-30T16:47:50.668Z,13.83
2022-09-30T16:50:25.343Z,13.78
2022-09-30T16:52:52.946Z,13.74
2022-09-30T16:55:20.482Z,13.68
2022-09-30T16:57:48.168Z,13.62
2022-09-30T17:00:17.975Z,13.56
2022-09-30T17:02:47.389Z,13.48
2022-09-30T17:05:18.493Z,13.41
2022-09-30T17:07:48.662Z,13.35
2022-09-30T17:10:22.354Z,13.27
2022-09-30T17:12:51.104Z,13.19
2022-09-30T17:15:19.548Z,13.10
2022-09-30T17:17:47.530Z,13.00
2022-09-30T17:20:15.630Z,12.88
2022-09-30T17:22:44.065Z,12.75
2022-09-30T17:25:13.005Z,12.66
2022-09-30T17:27:40.680Z,12.60
2022-09-30T17:30:09.640Z,12.52
2022-09-30T17:32:37.264Z,12.41
2022-09-30T17:35:05.953Z,12.33
2022-09-30T17:37:33.495Z,12.22
2022-09-30T17:40:01.534Z,12.14
2022-09-30T17:42:48.215Z,12.06
2022-09-30T17:45:15.983Z,11.95
2022-09-30T17:47:43.787Z,11.87
2022-09-30T17:50:12.778Z,11.74
2022-09-30T17:52:40.366Z,11.60
2022-09-30T17:55:08.307Z,11.50
2022-09-30T17:57:39.869Z,11.41
2022-09-30T18:00:09.085Z,11.32
2022-09-30T18:02:38.450Z,11.26
2022-09-30T18:05:06.772Z,11.20
2022-09-30T18:07:34.378Z,11.10
2022-09-30T18:10:02.455Z,11.01
2022-09-30T18:12:29.993Z,10.94
2022-09-30T18:14:59.695Z,10.89
2022-09-30T18:17:28.632Z,10.82
2022-09-30T18:19:56.267Z,10.77
2022-09-30T18:22:23.940Z,10.74
2022-09-30T18:25:09.007Z,10.68
2022-09-30T18:27:36.675Z,10.62
2022-09-30T18:30:06.783Z,10.61
2022-09-30T18:32:34.401Z,10.59
2022-09-30T18:35:01.948Z,10.53
2022-09-30T18:37:33.161Z,10.51
2022-09-30T18:40:00.857Z,10.49
2022-09-30T18:42:30.171Z,10.49
2022-09-30T18:44:57.755Z,10.49
2022-09-30T18:47:27.235Z,10.49
2022-09-30T18:49:54.895Z,10.51
2022-09-30T18:52:22.490Z,10.51
2022-09-30T18:54:50.172Z,10.54
2022-09-30T18:57:17.876Z,10.53
2022-09-30T18:59:45.603Z,10.54
2022-09-30T19:02:15.326Z,10.55
2022-09-30T19:04:44.312Z,10.56
2022-09-30T19:07:12.039Z,10.56
2022-09-30T19:09:40.962Z,10.57
2022-09-30T19:12:08.676Z,10.57
2022-09-30T19:14:37.384Z,10.58
2022-09-30T19:17:04.953Z,10.57
2022-09-30T19:19:32.931Z,10.58
2022-09-30T19:22:02.920Z,10.54
2022-09-30T19:24:30.483Z,10.52
2022-09-30T19:26:58.137Z,10.51
2022-09-30T19:29:25.940Z,10.49
2022-09-30T19:31:53.644Z,10.48
2022-09-30T19:34:30.791Z,10.47
2022-09-30T19:37:00.086Z,10.47
2022-09-30T19:39:40.762Z,10.48
2022-09-30T19:45:04.194Z,10.53
2022-09-30T19:47:34.309Z,10.55
2022-09-30T19:50:02.122Z,10.58
2022-09-30T19:52:30.095Z,10.59
2022-09-30T19:55:08.625Z,10.59
2022-09-30T19:57:42.391Z,10.64
2022-09-30T20:00:11.100Z,10.64
2022-09-30T20:02:39.325Z,10.65
2022-09-30T20:05:08.108Z,10.65
2022-09-30T20:07:35.933Z,10.63
2022-09-30T20:10:05.482Z,10.62
2022-09-30T20:12:33.135Z,10.60
2022-09-30T20:15:18.224Z,10.58
2022-09-30T20:17:45.853Z,10.57
2022-09-30T20:20:30.796Z,10.55
2022-09-30T20:23:01.010Z,10.52
2022-09-30T20:25:30.466Z,10.49
2022-09-30T20:27:58.091Z,10.49
2022-09-30T20:30:26.880Z,10.46
2022-09-30T20:32:54.572Z,10.45
2022-09-30T20:35:22.281Z,10.42
2022-09-30T20:37:50.019Z,10.41
2022-09-30T20:40:17.906Z,10.41
2022-09-30T20:42:46.894Z,10.42
2022-09-30T20:45:17.969Z,10.43
2022-09-30T20:47:47.142Z,10.42
2022-09-30T20:50:34.618Z,10.39
2022-09-30T20:53:04.176Z,10.40
2022-09-30T20:55:34.738Z,10.40
2022-09-30T20:58:04.605Z,10.39
2022-09-30T21:00:32.755Z,10.40
2022-09-30T21:03:00.423Z,10.40
2022-09-30T21:05:28.084Z,10.38
2022-09-30T21:07:55.943Z,10.42
2022-09-30T21:10:23.608Z,10.44
2022-09-30T21:12:51.171Z,10.44
2022-09-30T21:15:20.116Z,10.52
2022-09-30T21:17:47.681Z,10.53
2022-09-30T21:20:15.451Z,10.56
2022-09-30T21:22:43.102Z,10.55
2022-09-30T21:25:11.796Z,10.59
2022-09-30T21:27:40.296Z,10.63
2022-09-30T21:30:08.887Z,10.66
2022-09-30T21:32:39.232Z,10.68
2022-09-30T21:35:07.574Z,10.71
2022-09-30T21:37:35.161Z,10.74
2022-09-30T21:40:02.881Z,10.81
2022-09-30T21:42:30.628Z,10.82
2022-09-30T21:44:58.304Z,10.88
2022-09-30T21:47:25.827Z,10.90
2022-09-30T21:49:54.695Z,10.92
2022-09-30T21:52:22.926Z,10.98
2022-09-30T21:54:52.042Z,10.99
2022-09-30T21:57:19.659Z,11.00
2022-09-30T21:59:50.339Z,11.01
2022-09-30T22:02:18.165Z,11.07
2022-09-30T22:04:45.736Z,11.07
2022-09-30T22:07:16.027Z,11.11
2022-09-30T22:09:43.995Z,11.12
2022-09-30T22:12:11.734Z,11.15
2022-09-30T22:14:39.353Z,11.17
2022-09-30T22:17:10.037Z,11.19
2022-09-30T22:19:38.848Z,11.21
2022-09-30T22:22:06.461Z,11.23
2022-09-30T22:24:36.759Z,11.21
2022-09-30T22:27:05.377Z,11.32
2022-09-30T22:29:32.920Z,11.34
2022-09-30T22:32:02.214Z,11.33
2022-09-30T22:34:47.493Z,11.35
2022-09-30T22:37:32.918Z,11.38
2022-09-30T22:40:02.253Z,11.39
2022-09-30T22:42:30.167Z,11.38
2022-09-30T22:44:57.702Z,11.41
2022-09-30T22:47:25.251Z,11.39
2022-09-30T22:49:52.841Z,11.40
2022-09-30T22:52:20.414Z,11.45
2022-09-30T22:54:47.971Z,11.45
2022-09-30T22:57:17.072Z,11.46
2022-09-30T22:59:46.484Z,11.49
2022-09-30T23:02:15.638Z,11.49
2022-09-30T23:04:44.033Z,11.49
2022-09-30T23:07:11.698Z,11.50
2022-09-30T23:09:39.271Z,11.53
2022-09-30T23:12:06.943Z,11.54
2022-09-30T23:14:35.848Z,11.59
2022-09-30T23:17:03.573Z,11.58
2022-09-30T23:19:31.204Z,11.62
2022-09-30T23:21:58.948Z,11.62
2022-09-30T23:24:27.814Z,11.62
2022-09-30T23:26:55.533Z,11.62
2022-09-30T23:29:23.267Z,11.63
2022-09-30T23:32:44.008Z,11.66
2022-09-30T23:35:14.096Z,11.66
2022-09-30T23:37:41.734Z,11.67
2022-09-30T23:40:10.257Z,11.71
2022-09-30T23:42:37.852Z,11.76
2022-09-30T23:45:05.914Z,11.75
2022-09-30T23:47:34.450Z,11.74
2022-09-30T23:50:02.247Z,11.76
2022-09-30T23:52:31.331Z,11.81
2022-09-30T23:54:58.958Z,11.80
2022-09-30T23:57:26.717Z,11.84
2022-09-30T23:59:54.332Z,11.81
